sensor_id;sensor_type;location;lat;lon;timestamp;P1;durP1;ratioP1;P2;durP2;ratioP2
34184;SDS011;20454;48.100;11.776;2022-11-12T00:00:46;32.08;;;15.00;;
34184;SDS011;20454;48.100;11.776;2022-11-12T00:03:14;91.60;;;30.83;;
34184;SDS011;20454;48.100;11.776;2022-11-12T00:05:40;70.63;;;23.45;;
34184;SDS011;20454;48.100;11.776;2022-11-12T00:08:06;66.65;;;21.40;;
34184;SDS011;20454;48.100;11.776;2022-11-12T00:10:32;61.17;;;22.55;;
34184;SDS011;20454;48.100;11.776;2022-11-12T00:12:58;76.93;;;27.90;;
34184;SDS011;20454;48.100;11.776;2022-11-12T00:15:24;64.25;;;25.10;;
34184;SDS011;20454;48.100;11.776;2022-11-12T00:17:50;76.05;;;27.00;;
34184;SDS011;20454;48.100;11.776;2022-11-12T00:20:16;112.97;;;30.13;;
34184;SDS011;20454;48.100;11.776;2022-11-12T00:22:42;78.13;;;25.65;;
34184;SDS011;20454;48.100;11.776;2022-11-12T00:25:08;50.85;;;20.08;;
34184;SDS011;20454;48.100;11.776;2022-11-12T00:27:34;41.20;;;16.98;;
34184;SDS011;20454;48.100;11.776;2022-11-12T00:30:00;34.83;;;15.00;;
34184;SDS011;20454;48.100;11.776;2022-11-12T00:32:26;25.63;;;12.93;;
34184;SDS011;20454;48.100;11.776;2022-11-12T00:34:52;18.48;;;10.15;;
34184;SDS011;20454;48.100;11.776;2022-11-12T00:37:17;12.90;;;7.90;;
34184;SDS011;20454;48.100;11.776;2022-11-12T00:39:44;10.45;;;7.75;;
34184;SDS011;20454;48.100;11.776;2022-11-12T00:42:10;7.35;;;5.30;;
34184;SDS011;20454;48.100;11.776;2022-11-12T00:44:36;5.38;;;4.53;;
34184;SDS011;20454;48.100;11.776;2022-11-12T00:47:02;3.95;;;3.55;;
34184;SDS011;20454;48.100;11.776;2022-11-12T00:49:28;5.10;;;4.60;;
34184;SDS011;20454;48.100;11.776;2022-11-12T00:51:53;5.00;;;4.57;;
34184;SDS011;20454;48.100;11.776;2022-11-12T00:54:19;7.18;;;5.72;;
34184;SDS011;20454;48.100;11.776;2022-11-12T00:56:45;7.28;;;6.53;;
34184;SDS011;20454;48.100;11.776;2022-11-12T00:59:12;9.10;;;8.20;;
34184;SDS011;20454;48.100;11.776;2022-11-12T01:01:38;11.40;;;10.35;;
34184;SDS011;20454;48.100;11.776;2022-11-12T01:04:04;9.95;;;9.10;;
34184;SDS011;20454;48.100;11.776;2022-11-12T01:06:30;8.00;;;7.20;;
34184;SDS011;20454;48.100;11.776;2022-11-12T01:08:56;7.53;;;6.70;;
34184;SDS011;20454;48.100;11.776;2022-11-12T01:11:27;6.53;;;6.03;;
34184;SDS011;20454;48.100;11.776;2022-11-12T01:13:55;6.05;;;5.45;;
34184;SDS011;20454;48.100;11.776;2022-11-12T01:16:31;9.30;;;6.60;;
34184;SDS011;20454;48.100;11.776;2022-11-12T01:19:03;6.90;;;6.22;;
34184;SDS011;20454;48.100;11.776;2022-11-12T01:21:35;9.05;;;5.10;;
34184;SDS011;20454;48.100;11.776;2022-11-12T01:24:03;5.65;;;5.15;;
34184;SDS011;20454;48.100;11.776;2022-11-12T01:26:30;6.38;;;5.65;;
34184;SDS011;20454;48.100;11.776;2022-11-12T01:28:55;5.82;;;5.25;;
34184;SDS011;20454;48.100;11.776;2022-11-12T01:31:22;6.63;;;6.00;;
34184;SDS011;20454;48.100;11.776;2022-11-12T01:33:56;6.10;;;5.38;;
34184;SDS011;20454;48.100;11.776;2022-11-12T01:36:26;9.32;;;6.40;;
34184;SDS011;20454;48.100;11.776;2022-11-12T01:38:55;5.07;;;4.68;;
34184;SDS011;20454;48.100;11.776;2022-11-12T01:41:21;6.75;;;6.13;;
34184;SDS011;20454;48.100;11.776;2022-11-12T01:44:10;7.07;;;6.35;;
34184;SDS011;20454;48.100;11.776;2022-11-12T01:46:58;5.75;;;5.25;;
34184;SDS011;20454;48.100;11.776;2022-11-12T01:52:48;12.05;;;6.18;;
34184;SDS011;20454;48.100;11.776;2022-11-12T01:55:23;6.75;;;5.25;;
34184;SDS011;20454;48.100;11.776;2022-11-12T01:57:55;7.65;;;5.90;;
34184;SDS011;20454;48.100;11.776;2022-11-12T02:00:38;6.90;;;6.15;;
34184;SDS011;20454;48.100;11.776;2022-11-12T02:03:07;6.05;;;5.45;;
34184;SDS011;20454;48.100;11.776;2022-11-12T02:05:39;8.63;;;7.18;;
34184;SDS011;20454;48.100;11.776;2022-11-12T02:08:06;9.98;;;6.93;;
34184;SDS011;20454;48.100;11.776;2022-11-12T02:10:35;8.70;;;7.63;;
34184;SDS011;20454;48.100;11.776;2022-11-12T02:13:03;8.15;;;6.63;;
34184;SDS011;20454;48.100;11.776;2022-11-12T02:15:48;7.28;;;6.57;;
34184;SDS011;20454;48.100;11.776;2022-11-12T02:18:14;6.32;;;5.05;;
34184;SDS011;20454;48.100;11.776;2022-11-12T02:20:40;6.70;;;6.05;;
34184;SDS011;20454;48.100;11.776;2022-11-12T02:23:06;8.85;;;5.72;;
34184;SDS011;20454;48.100;11.776;2022-11-12T02:25:33;9.90;;;7.05;;
34184;SDS011;20454;48.100;11.776;2022-11-12T02:28:00;9.35;;;7.18;;
34184;SDS011;20454;48.100;11.776;2022-11-12T02:30:41;19.67;;;12.45;;
34184;SDS011;20454;48.100;11.776;2022-11-12T02:33:10;14.43;;;12.20;;
34184;SDS011;20454;48.100;11.776;2022-11-12T02:35:35;17.02;;;10.98;;
34184;SDS011;20454;48.100;11.776;2022-11-12T02:38:02;14.93;;;10.13;;
34184;SDS011;20454;48.100;11.776;2022-11-12T02:40:28;18.55;;;12.48;;
34184;SDS011;20454;48.100;11.776;2022-11-12T02:42:54;23.42;;;13.02;;
34184;SDS011;20454;48.100;11.776;2022-11-12T02:45:20;16.27;;;10.82;;
34184;SDS011;20454;48.100;11.776;2022-11-12T02:47:46;16.83;;;10.52;;
34184;SDS011;20454;48.100;11.776;2022-11-12T02:50:12;16.15;;;10.25;;
34184;SDS011;20454;48.100;11.776;2022-11-12T02:52:38;12.90;;;9.18;;
34184;SDS011;20454;48.100;11.776;2022-11-12T02:55:04;11.50;;;8.30;;
34184;SDS011;20454;48.100;11.776;2022-11-12T02:57:35;10.32;;;7.95;;
34184;SDS011;20454;48.100;11.776;2022-11-12T03:00:05;10.43;;;8.40;;
34184;SDS011;20454;48.100;11.776;2022-11-12T06:31:34;6.57;;;6.05;;
34184;SDS011;20454;48.100;11.776;2022-11-12T06:33:59;9.13;;;7.38;;
34184;SDS011;20454;48.100;11.776;2022-11-12T06:36:25;9.52;;;8.27;;
34184;SDS011;20454;48.100;11.776;2022-11-12T06:38:51;8.27;;;7.68;;
34184;SDS011;20454;48.100;11.776;2022-11-12T06:41:16;8.80;;;7.95;;
34184;SDS011;20454;48.100;11.776;2022-11-12T06:43:42;7.45;;;6.78;;
34184;SDS011;20454;48.100;11.776;2022-11-12T06:46:11;8.65;;;7.85;;
34184;SDS011;20454;48.100;11.776;2022-11-12T06:48:39;21.52;;;9.45;;
34184;SDS011;20454;48.100;11.776;2022-11-12T06:51:06;9.63;;;8.35;;
34184;SDS011;20454;48.100;11.776;2022-11-12T06:53:41;9.68;;;8.25;;
34184;SDS011;20454;48.100;11.776;2022-11-12T06:56:07;9.48;;;7.85;;
34184;SDS011;20454;48.100;11.776;2022-11-12T06:58:34;8.88;;;8.10;;
34184;SDS011;20454;48.100;11.776;2022-11-12T07:01:18;9.77;;;8.98;;
34184;SDS011;20454;48.100;11.776;2022-11-12T07:03:43;7.53;;;6.75;;
34184;SDS011;20454;48.100;11.776;2022-11-12T07:06:13;8.85;;;7.95;;
34184;SDS011;20454;48.100;11.776;2022-11-12T07:08:43;18.23;;;10.35;;
34184;SDS011;20454;48.100;11.776;2022-11-12T07:11:09;11.60;;;8.95;;
34184;SDS011;20454;48.100;11.776;2022-11-12T07:13:35;12.27;;;10.35;;
34184;SDS011;20454;48.100;11.776;2022-11-12T07:16:02;12.88;;;9.85;;
34184;SDS011;20454;48.100;11.776;2022-11-12T07:18:30;14.73;;;10.95;;
34184;SDS011;20454;48.100;11.776;2022-11-12T07:20:58;9.65;;;8.15;;
34184;SDS011;20454;48.100;11.776;2022-11-12T07:23:30;10.27;;;9.27;;
34184;SDS011;20454;48.100;11.776;2022-11-12T07:26:01;12.20;;;9.30;;
34184;SDS011;20454;48.100;11.776;2022-11-12T07:28:49;11.95;;;8.60;;
34184;SDS011;20454;48.100;11.776;2022-11-12T07:31:16;19.42;;;10.77;;
34184;SDS011;20454;48.100;11.776;2022-11-12T07:33:44;11.43;;;9.38;;
34184;SDS011;20454;48.100;11.776;2022-11-12T07:36:13;12.82;;;10.57;;
34184;SDS011;20454;48.100;11.776;2022-11-12T07:38:41;14.20;;;10.68;;
34184;SDS011;20454;48.100;11.776;2022-11-12T07:41:12;14.73;;;10.07;;
34184;SDS011;20454;48.100;11.776;2022-11-12T07:43:43;10.55;;;9.45;;
34184;SDS011;20454;48.100;11.776;2022-11-12T07:46:12;10.23;;;9.25;;
34184;SDS011;20454;48.100;11.776;2022-11-12T07:48:40;9.40;;;8.50;;
34184;SDS011;20454;48.100;11.776;2022-11-12T07:51:12;10.10;;;9.07;;
34184;SDS011;20454;48.100;11.776;2022-11-12T07:53:41;7.88;;;6.63;;
34184;SDS011;20454;48.100;11.776;2022-11-12T07:56:12;9.10;;;8.23;;
34184;SDS011;20454;48.100;11.776;2022-11-12T08:03:57;10.75;;;9.75;;
34184;SDS011;20454;48.100;11.776;2022-11-12T08:06:25;12.82;;;9.20;;
34184;SDS011;20454;48.100;11.776;2022-11-12T08:08:56;9.25;;;8.40;;
34184;SDS011;20454;48.100;11.776;2022-11-12T08:11:24;12.30;;;8.10;;
34184;SDS011;20454;48.100;11.776;2022-11-12T08:13:50;9.73;;;8.82;;
34184;SDS011;20454;48.100;11.776;2022-11-12T08:16:16;9.40;;;8.48;;
34184;SDS011;20454;48.100;11.776;2022-11-12T08:18:42;10.13;;;8.93;;
34184;SDS011;20454;48.100;11.776;2022-11-12T08:21:11;9.07;;;8.27;;
34184;SDS011;20454;48.100;11.776;2022-11-12T08:23:39;10.32;;;9.43;;
34184;SDS011;20454;48.100;11.776;2022-11-12T08:26:06;9.98;;;9.10;;
34184;SDS011;20454;48.100;11.776;2022-11-12T08:28:35;10.82;;;9.80;;
34184;SDS011;20454;48.100;11.776;2022-11-12T08:31:05;10.68;;;9.57;;
34184;SDS011;20454;48.100;11.776;2022-11-12T08:33:34;10.85;;;9.70;;
34184;SDS011;20454;48.100;11.776;2022-11-12T08:36:03;9.93;;;9.00;;
34184;SDS011;20454;48.100;11.776;2022-11-12T08:38:31;10.48;;;9.48;;
34184;SDS011;20454;48.100;11.776;2022-11-12T08:41:05;11.20;;;10.02;;
34184;SDS011;20454;48.100;11.776;2022-11-12T08:43:34;11.80;;;10.75;;
34184;SDS011;20454;48.100;11.776;2022-11-12T08:46:01;9.30;;;8.48;;
34184;SDS011;20454;48.100;11.776;2022-11-12T08:48:28;9.95;;;8.88;;
34184;SDS011;20454;48.100;11.776;2022-11-12T08:50:55;10.20;;;9.40;;
34184;SDS011;20454;48.100;11.776;2022-11-12T08:53:22;10.13;;;9.18;;
34184;SDS011;20454;48.100;11.776;2022-11-12T08:55:52;10.43;;;9.60;;
34184;SDS011;20454;48.100;11.776;2022-11-12T08:58:19;9.65;;;8.85;;
34184;SDS011;20454;48.100;11.776;2022-11-12T09:00:46;8.30;;;7.50;;
34184;SDS011;20454;48.100;11.776;2022-11-12T09:03:13;9.50;;;8.35;;
34184;SDS011;20454;48.100;11.776;2022-11-12T09:05:41;8.60;;;7.47;;
34184;SDS011;20454;48.100;11.776;2022-11-12T09:08:14;7.55;;;7.05;;
34184;SDS011;20454;48.100;11.776;2022-11-12T09:10:43;8.83;;;8.03;;
34184;SDS011;20454;48.100;11.776;2022-11-12T09:13:09;8.13;;;7.28;;
34184;SDS011;20454;48.100;11.776;2022-11-12T09:15:35;7.72;;;7.03;;
34184;SDS011;20454;48.100;11.776;2022-11-12T09:18:02;7.72;;;7.03;;
34184;SDS011;20454;48.100;11.776;2022-11-12T09:20:31;6.60;;;6.10;;
34184;SDS011;20454;48.100;11.776;2022-11-12T09:22:57;8.05;;;7.35;;
34184;SDS011;20454;48.100;11.776;2022-11-12T09:25:31;12.13;;;9.07;;
34184;SDS011;20454;48.100;11.776;2022-11-12T09:28:04;8.88;;;8.10;;
34184;SDS011;20454;48.100;11.776;2022-11-12T09:30:40;9.77;;;8.95;;
34184;SDS011;20454;48.100;11.776;2022-11-12T10:32:50;7.20;;;6.80;;
34184;SDS011;20454;48.100;11.776;2022-11-12T10:35:18;6.88;;;6.38;;
34184;SDS011;20454;48.100;11.776;2022-11-12T10:37:48;6.05;;;5.65;;
34184;SDS011;20454;48.100;11.776;2022-11-12T10:40:25;4.93;;;4.63;;
34184;SDS011;20454;48.100;11.776;2022-11-12T10:45:29;5.38;;;4.97;;
34184;SDS011;20454;48.100;11.776;2022-11-12T10:47:56;5.63;;;5.18;;
34184;SDS011;20454;48.100;11.776;2022-11-12T10:53:06;6.23;;;5.73;;
34184;SDS011;20454;48.100;11.776;2022-11-12T10:55:39;5.40;;;5.07;;
34184;SDS011;20454;48.100;11.776;2022-11-12T10:58:21;6.18;;;5.78;;
34184;SDS011;20454;48.100;11.776;2022-11-12T11:03:33;5.32;;;5.03;;
34184;SDS011;20454;48.100;11.776;2022-11-12T11:06:02;5.80;;;5.40;;
34184;SDS011;20454;48.100;11.776;2022-11-12T11:11:12;5.60;;;5.13;;
34184;SDS011;20454;48.100;11.776;2022-11-12T11:13:53;5.90;;;5.43;;
34184;SDS011;20454;48.100;11.776;2022-11-12T11:16:53;5.28;;;4.78;;
34184;SDS011;20454;48.100;11.776;2022-11-12T11:19:22;6.28;;;5.78;;
34184;SDS011;20454;48.100;11.776;2022-11-12T11:25:02;8.35;;;7.80;;
34184;SDS011;20454;48.100;11.776;2022-11-12T11:27:59;9.10;;;8.27;;
34184;SDS011;20454;48.100;11.776;2022-11-12T11:33:56;9.35;;;8.45;;
34184;SDS011;20454;48.100;11.776;2022-11-12T11:37:00;9.63;;;8.90;;
34184;SDS011;20454;48.100;11.776;2022-11-12T11:45:25;11.25;;;10.35;;
34184;SDS011;20454;48.100;11.776;2022-11-12T11:57:32;10.18;;;9.18;;
34184;SDS011;20454;48.100;11.776;2022-11-12T12:14:44;10.48;;;9.65;;
34184;SDS011;20454;48.100;11.776;2022-11-12T12:20:53;9.52;;;8.77;;
34184;SDS011;20454;48.100;11.776;2022-11-12T12:23:33;9.03;;;8.23;;
34184;SDS011;20454;48.100;11.776;2022-11-12T12:26:24;8.85;;;8.15;;
34184;SDS011;20454;48.100;11.776;2022-11-12T12:29:27;8.35;;;7.65;;
34184;SDS011;20454;48.100;11.776;2022-11-12T12:35:12;11.13;;;10.13;;
34184;SDS011;20454;48.100;11.776;2022-11-12T12:37:55;8.40;;;7.80;;
34184;SDS011;20454;48.100;11.776;2022-11-12T12:40:45;8.35;;;7.65;;
34184;SDS011;20454;48.100;11.776;2022-11-12T12:43:33;7.93;;;7.13;;
34184;SDS011;20454;48.100;11.776;2022-11-12T12:46:05;7.80;;;7.20;;
34184;SDS011;20454;48.100;11.776;2022-11-12T12:48:37;11.20;;;10.13;;
34184;SDS011;20454;48.100;11.776;2022-11-12T12:51:06;9.02;;;8.20;;
34184;SDS011;20454;48.100;11.776;2022-11-12T12:53:33;8.35;;;7.75;;
34184;SDS011;20454;48.100;11.776;2022-11-12T12:56:01;7.60;;;7.10;;
34184;SDS011;20454;48.100;11.776;2022-11-12T12:58:51;9.00;;;8.23;;
34184;SDS011;20454;48.100;11.776;2022-11-12T13:06:24;7.63;;;6.85;;
34184;SDS011;20454;48.100;11.776;2022-11-12T13:22:47;11.48;;;10.27;;
34184;SDS011;20454;48.100;11.776;2022-11-12T13:37:42;7.65;;;7.15;;
34184;SDS011;20454;48.100;11.776;2022-11-12T13:43:44;9.63;;;8.60;;
34184;SDS011;20454;48.100;11.776;2022-11-12T13:49:01;8.30;;;7.57;;
34184;SDS011;20454;48.100;11.776;2022-11-12T13:51:45;8.82;;;8.00;;
34184;SDS011;20454;48.100;11.776;2022-11-12T14:02:40;8.48;;;7.63;;
34184;SDS011;20454;48.100;11.776;2022-11-12T14:05:17;8.43;;;7.70;;
34184;SDS011;20454;48.100;11.776;2022-11-12T14:07:54;7.90;;;7.35;;
34184;SDS011;20454;48.100;11.776;2022-11-12T14:20:11;10.98;;;10.13;;
34184;SDS011;20454;48.100;11.776;2022-11-12T14:22:56;9.98;;;9.07;;
34184;SDS011;20454;48.100;11.776;2022-11-12T14:25:50;9.13;;;8.32;;
34184;SDS011;20454;48.100;11.776;2022-11-12T14:28:25;9.18;;;8.32;;
34184;SDS011;20454;48.100;11.776;2022-11-12T14:30:52;8.00;;;7.38;;
34184;SDS011;20454;48.100;11.776;2022-11-12T14:33:19;8.82;;;8.10;;
34184;SDS011;20454;48.100;11.776;2022-11-12T14:35:47;8.70;;;7.90;;
34184;SDS011;20454;48.100;11.776;2022-11-12T14:40:55;9.95;;;9.15;;
34184;SDS011;20454;48.100;11.776;2022-11-12T14:46:07;13.35;;;9.75;;
34184;SDS011;20454;48.100;11.776;2022-11-12T14:48:50;8.80;;;8.02;;
34184;SDS011;20454;48.100;11.776;2022-11-12T14:51:21;10.10;;;9.27;;
34184;SDS011;20454;48.100;11.776;2022-11-12T14:53:54;9.32;;;8.63;;
34184;SDS011;20454;48.100;11.776;2022-11-12T14:56:31;11.77;;;9.30;;
34184;SDS011;20454;48.100;11.776;2022-11-12T14:59:09;10.60;;;8.77;;
34184;SDS011;20454;48.100;11.776;2022-11-12T15:01:37;10.95;;;9.32;;
34184;SDS011;20454;48.100;11.776;2022-11-12T15:06:37;11.85;;;10.35;;
34184;SDS011;20454;48.100;11.776;2022-11-12T15:09:03;9.80;;;8.90;;
34184;SDS011;20454;48.100;11.776;2022-11-12T15:12:03;10.90;;;8.60;;
34184;SDS011;20454;48.100;11.776;2022-11-12T15:14:22;9.38;;;8.27;;
34184;SDS011;20454;48.100;11.776;2022-11-12T15:16:49;8.48;;;7.78;;
34184;SDS011;20454;48.100;11.776;2022-11-12T15:19:20;8.48;;;7.75;;
34184;SDS011;20454;48.100;11.776;2022-11-12T15:21:55;9.80;;;8.98;;
34184;SDS011;20454;48.100;11.776;2022-11-12T15:24:31;10.15;;;9.25;;
34184;SDS011;20454;48.100;11.776;2022-11-12T15:27:01;10.35;;;9.55;;
34184;SDS011;20454;48.100;11.776;2022-11-12T15:30:46;10.90;;;10.00;;
34184;SDS011;20454;48.100;11.776;2022-11-12T15:33:07;11.10;;;10.00;;
34184;SDS011;20454;48.100;11.776;2022-11-12T15:35:46;11.35;;;10.35;;
34184;SDS011;20454;48.100;11.776;2022-11-12T15:38:27;13.13;;;11.82;;
34184;SDS011;20454;48.100;11.776;2022-11-12T15:41:00;14.18;;;12.73;;
34184;SDS011;20454;48.100;11.776;2022-11-12T15:43:35;15.10;;;11.52;;
34184;SDS011;20454;48.100;11.776;2022-11-12T15:46:09;13.70;;;12.32;;
34184;SDS011;20454;48.100;11.776;2022-11-12T15:48:39;13.50;;;12.20;;
34184;SDS011;20454;48.100;11.776;2022-11-12T15:51:07;11.25;;;10.25;;
34184;SDS011;20454;48.100;11.776;2022-11-12T15:53:35;13.23;;;11.70;;
34184;SDS011;20454;48.100;11.776;2022-11-12T15:56:00;11.98;;;10.88;;
34184;SDS011;20454;48.100;11.776;2022-11-12T15:58:31;14.88;;;12.82;;
34184;SDS011;20454;48.100;11.776;2022-11-12T16:00:59;11.55;;;10.55;;
34184;SDS011;20454;48.100;11.776;2022-11-12T16:03:26;11.07;;;10.05;;
34184;SDS011;20454;48.100;11.776;2022-11-12T16:05:51;11.75;;;10.55;;
34184;SDS011;20454;48.100;11.776;2022-11-12T16:08:17;12.70;;;11.40;;
34184;SDS011;20454;48.100;11.776;2022-11-12T16:10:43;15.27;;;13.93;;
34184;SDS011;20454;48.100;11.776;2022-11-12T16:13:12;16.25;;;14.52;;
34184;SDS011;20454;48.100;11.776;2022-11-12T16:15:59;16.13;;;14.38;;
34184;SDS011;20454;48.100;11.776;2022-11-12T16:18:30;17.42;;;15.65;;
34184;SDS011;20454;48.100;11.776;2022-11-12T16:20:55;16.05;;;14.48;;
34184;SDS011;20454;48.100;11.776;2022-11-12T16:23:21;16.17;;;14.52;;
34184;SDS011;20454;48.100;11.776;2022-11-12T16:25:47;15.30;;;13.70;;
34184;SDS011;20454;48.100;11.776;2022-11-12T16:28:16;15.25;;;13.80;;
34184;SDS011;20454;48.100;11.776;2022-11-12T16:30:43;15.23;;;13.63;;
34184;SDS011;20454;48.100;11.776;2022-11-12T16:33:11;15.40;;;13.85;;
34184;SDS011;20454;48.100;11.776;2022-11-12T16:35:37;13.10;;;11.88;;
34184;SDS011;20454;48.100;11.776;2022-11-12T16:38:09;13.48;;;12.18;;
34184;SDS011;20454;48.100;11.776;2022-11-12T16:40:39;13.60;;;12.30;;
34184;SDS011;20454;48.100;11.776;2022-11-12T16:43:06;13.32;;;11.98;;
34184;SDS011;20454;48.100;11.776;2022-11-12T16:45:37;19.75;;;15.85;;
34184;SDS011;20454;48.100;11.776;2022-11-12T16:48:10;20.63;;;16.02;;
34184;SDS011;20454;48.100;11.776;2022-11-12T16:50:44;18.77;;;14.88;;
34184;SDS011;20454;48.100;11.776;2022-11-12T16:53:11;14.40;;;12.98;;
34184;SDS011;20454;48.100;11.776;2022-11-12T16:55:37;12.68;;;11.38;;
34184;SDS011;20454;48.100;11.776;2022-11-12T16:58:03;18.17;;;15.77;;
34184;SDS011;20454;48.100;11.776;2022-11-12T17:00:29;15.23;;;13.48;;
34184;SDS011;20454;48.100;11.776;2022-11-12T17:02:54;15.90;;;12.00;;
34184;SDS011;20454;48.100;11.776;2022-11-12T17:05:21;12.88;;;11.77;;
34184;SDS011;20454;48.100;11.776;2022-11-12T17:07:49;13.45;;;12.25;;
34184;SDS011;20454;48.100;11.776;2022-11-12T17:10:20;14.45;;;13.05;;
34184;SDS011;20454;48.100;11.776;2022-11-12T17:12:48;15.45;;;13.77;;
34184;SDS011;20454;48.100;11.776;2022-11-12T17:15:15;15.88;;;14.18;;
34184;SDS011;20454;48.100;11.776;2022-11-12T17:17:41;16.42;;;14.75;;
34184;SDS011;20454;48.100;11.776;2022-11-12T17:20:07;14.70;;;13.15;;
34184;SDS011;20454;48.100;11.776;2022-11-12T17:22:34;15.13;;;13.65;;
34184;SDS011;20454;48.100;11.776;2022-11-12T17:25:00;17.05;;;14.95;;
34184;SDS011;20454;48.100;11.776;2022-11-12T17:27:26;15.77;;;14.18;;
34184;SDS011;20454;48.100;11.776;2022-11-12T17:29:52;14.95;;;13.43;;
34184;SDS011;20454;48.100;11.776;2022-11-12T17:32:18;13.95;;;12.57;;
34184;SDS011;20454;48.100;11.776;2022-11-12T17:34:44;15.00;;;13.50;;
34184;SDS011;20454;48.100;11.776;2022-11-12T17:37:09;12.75;;;11.45;;
34184;SDS011;20454;48.100;11.776;2022-11-12T17:39:35;14.45;;;13.05;;
34184;SDS011;20454;48.100;11.776;2022-11-12T17:42:01;14.18;;;12.85;;
34184;SDS011;20454;48.100;11.776;2022-11-12T17:44:27;14.00;;;12.55;;
34184;SDS011;20454;48.100;11.776;2022-11-12T17:46:53;13.70;;;12.43;;
34184;SDS011;20454;48.100;11.776;2022-11-12T17:49:18;18.52;;;15.68;;
34184;SDS011;20454;48.100;11.776;2022-11-12T17:51:44;17.90;;;15.27;;
34184;SDS011;20454;48.100;11.776;2022-11-12T17:54:10;13.50;;;12.23;;
34184;SDS011;20454;48.100;11.776;2022-11-12T17:56:36;13.52;;;12.00;;
34184;SDS011;20454;48.100;11.776;2022-11-12T17:59:02;16.85;;;15.05;;
34184;SDS011;20454;48.100;11.776;2022-11-12T18:01:29;16.27;;;14.10;;
34184;SDS011;20454;48.100;11.776;2022-11-12T18:03:56;12.70;;;9.82;;
34184;SDS011;20454;48.100;11.776;2022-11-12T18:06:24;13.63;;;12.32;;
34184;SDS011;20454;48.100;11.776;2022-11-12T18:08:56;11.68;;;10.57;;
34184;SDS011;20454;48.100;11.776;2022-11-12T18:11:25;16.02;;;14.40;;
34184;SDS011;20454;48.100;11.776;2022-11-12T18:13:53;16.63;;;15.02;;
34184;SDS011;20454;48.100;11.776;2022-11-12T18:16:21;15.48;;;13.90;;
34184;SDS011;20454;48.100;11.776;2022-11-12T18:18:55;16.05;;;13.27;;
34184;SDS011;20454;48.100;11.776;2022-11-12T18:21:22;20.88;;;16.52;;
34184;SDS011;20454;48.100;11.776;2022-11-12T18:23:49;13.38;;;12.05;;
34184;SDS011;20454;48.100;11.776;2022-11-12T18:26:16;17.25;;;13.32;;
34184;SDS011;20454;48.100;11.776;2022-11-12T18:29:04;14.60;;;12.40;;
34184;SDS011;20454;48.100;11.776;2022-11-12T18:31:28;13.40;;;12.00;;
34184;SDS011;20454;48.100;11.776;2022-11-12T21:25:23;9.38;;;8.60;;
34184;SDS011;20454;48.100;11.776;2022-11-12T21:27:49;8.95;;;8.25;;
34184;SDS011;20454;48.100;11.776;2022-11-12T21:30:15;9.20;;;8.48;;
34184;SDS011;20454;48.100;11.776;2022-11-12T21:32:40;9.45;;;8.63;;
34184;SDS011;20454;48.100;11.776;2022-11-12T21:35:06;11.40;;;10.23;;
34184;SDS011;20454;48.100;11.776;2022-11-12T21:37:32;11.25;;;8.95;;
34184;SDS011;20454;48.100;11.776;2022-11-12T21:39:58;9.60;;;8.70;;
34184;SDS011;20454;48.100;11.776;2022-11-12T21:42:24;9.40;;;8.52;;
34184;SDS011;20454;48.100;11.776;2022-11-12T21:44:49;9.35;;;8.45;;
34184;SDS011;20454;48.100;11.776;2022-11-12T21:47:15;9.40;;;8.40;;
34184;SDS011;20454;48.100;11.776;2022-11-12T21:49:41;8.98;;;8.13;;
34184;SDS011;20454;48.100;11.776;2022-11-12T21:52:06;10.23;;;9.35;;
34184;SDS011;20454;48.100;11.776;2022-11-12T21:54:35;9.30;;;8.43;;
34184;SDS011;20454;48.100;11.776;2022-11-12T21:57:00;9.50;;;8.57;;
34184;SDS011;20454;48.100;11.776;2022-11-12T21:59:26;9.45;;;8.55;;
34184;SDS011;20454;48.100;11.776;2022-11-12T22:01:52;10.25;;;9.27;;
34184;SDS011;20454;48.100;11.776;2022-11-12T22:04:17;10.57;;;9.57;;
34184;SDS011;20454;48.100;11.776;2022-11-12T22:06:43;10.45;;;9.48;;
34184;SDS011;20454;48.100;11.776;2022-11-12T22:09:09;10.95;;;9.95;;
34184;SDS011;20454;48.100;11.776;2022-11-12T22:11:35;10.65;;;9.57;;
34184;SDS011;20454;48.100;11.776;2022-11-12T22:14:00;9.13;;;8.25;;
34184;SDS011;20454;48.100;11.776;2022-11-12T22:16:26;9.60;;;8.50;;
34184;SDS011;20454;48.100;11.776;2022-11-12T22:18:55;10.93;;;10.07;;
34184;SDS011;20454;48.100;11.776;2022-11-12T22:21:24;9.95;;;9.25;;
34184;SDS011;20454;48.100;11.776;2022-11-12T22:23:53;15.07;;;13.60;;
34184;SDS011;20454;48.100;11.776;2022-11-12T22:26:21;12.43;;;11.32;;
34184;SDS011;20454;48.100;11.776;2022-11-12T22:28:51;10.93;;;9.85;;
34184;SDS011;20454;48.100;11.776;2022-11-12T22:31:19;9.95;;;8.93;;
34184;SDS011;20454;48.100;11.776;2022-11-12T22:33:48;10.27;;;9.27;;
34184;SDS011;20454;48.100;11.776;2022-11-12T22:36:15;9.93;;;9.02;;
34184;SDS011;20454;48.100;11.776;2022-11-12T22:38:45;10.95;;;9.43;;
34184;SDS011;20454;48.100;11.776;2022-11-12T22:41:16;12.43;;;11.25;;
34184;SDS011;20454;48.100;11.776;2022-11-12T22:43:51;10.45;;;9.45;;
34184;SDS011;20454;48.100;11.776;2022-11-12T22:46:20;9.90;;;9.05;;
34184;SDS011;20454;48.100;11.776;2022-11-12T22:48:48;10.52;;;9.60;;
34184;SDS011;20454;48.100;11.776;2022-11-12T22:51:15;9.32;;;8.52;;
34184;SDS011;20454;48.100;11.776;2022-11-12T22:53:44;10.30;;;9.43;;
34184;SDS011;20454;48.100;11.776;2022-11-12T22:56:12;11.45;;;9.07;;
34184;SDS011;20454;48.100;11.776;2022-11-12T22:58:43;12.02;;;10.60;;
34184;SDS011;20454;48.100;11.776;2022-11-12T23:01:21;10.80;;;9.80;;
34184;SDS011;20454;48.100;11.776;2022-11-12T23:03:58;10.25;;;9.25;;
34184;SDS011;20454;48.100;11.776;2022-11-12T23:06:28;10.10;;;9.10;;
34184;SDS011;20454;48.100;11.776;2022-11-12T23:08:54;10.65;;;9.63;;
34184;SDS011;20454;48.100;11.776;2022-11-12T23:11:23;10.77;;;9.82;;
34184;SDS011;20454;48.100;11.776;2022-11-12T23:13:52;9.23;;;8.43;;
34184;SDS011;20454;48.100;11.776;2022-11-12T23:16:21;10.50;;;9.45;;
34184;SDS011;20454;48.100;11.776;2022-11-12T23:18:53;10.55;;;9.75;;
34184;SDS011;20454;48.100;11.776;2022-11-12T23:21:20;8.85;;;8.07;;
34184;SDS011;20454;48.100;11.776;2022-11-12T23:23:50;9.45;;;8.65;;
34184;SDS011;20454;48.100;11.776;2022-11-12T23:28:47;12.40;;;8.98;;
34184;SDS011;20454;48.100;11.776;2022-11-12T23:31:15;9.55;;;8.65;;
34184;SDS011;20454;48.100;11.776;2022-11-12T23:33:44;10.02;;;9.13;;
34184;SDS011;20454;48.100;11.776;2022-11-12T23:36:12;10.52;;;9.48;;
34184;SDS011;20454;48.100;11.776;2022-11-12T23:38:38;8.38;;;7.68;;
34184;SDS011;20454;48.100;11.776;2022-11-12T23:41:04;10.25;;;9.27;;
34184;SDS011;20454;48.100;11.776;2022-11-12T23:43:31;10.15;;;9.13;;
34184;SDS011;20454;48.100;11.776;2022-11-12T23:45:57;11.10;;;10.00;;
34184;SDS011;20454;48.100;11.776;2022-11-12T23:48:23;10.15;;;9.25;;
34184;SDS011;20454;48.100;11.776;2022-11-12T23:50:49;8.93;;;8.15;;
34184;SDS011;20454;48.100;11.776;2022-11-12T23:53:16;9.55;;;8.38;;
34184;SDS011;20454;48.100;11.776;2022-11-12T23:55:42;9.57;;;8.60;;
34184;SDS011;20454;48.100;11.776;2022-11-12T23:58:08;9.52;;;8.60;;
